Time;durP1;ratioP1;P1;durP2;ratioP2;P2;SDS_P1;SDS_P2;PMS_P1;PMS_P2;Temp;Humidity;BMP_temperature;BMP_pressure;BME280_temperature;BME280_humidity;BME280_pressure;Samples;Min_cycle;Max_cycle;Signal;HPM_P1;HPM_P2
2023/06/29 00:01:27;;;;;;;7.53;3.63;;;21.40;99.90;;;;;;5091957;28;20032;-56
2023/06/29 00:03:52;;;;;;;10.15;3.90;;;21.50;99.90;;;;;;5091439;28;20028;-56
2023/06/29 00:06:18;;;;;;;9.07;3.65;;;21.50;99.90;;;;;;5091911;28;20035;-57
2023/06/29 00:08:44;;;;;;;9.10;3.47;;;21.60;99.90;;;;;;5091807;28;20017;-57
2023/06/29 00:11:09;;;;;;;12.27;4.32;;;21.60;99.90;;;;;;5091994;28;20036;-56
2023/06/29 00:13:35;;;;;;;9.30;3.50;;;21.60;99.90;;;;;;5091567;28;20593;-56
2023/06/29 00:16:01;;;;;;;7.70;3.60;;;21.70;99.90;;;;;;5091590;28;20028;-57
2023/06/29 00:18:30;;;;;;;5.72;3.08;;;21.70;99.90;;;;;;5090928;28;20031;-54
2023/06/29 00:20:57;;;;;;;6.03;2.90;;;21.70;99.90;;;;;;5090644;28;20043;-57
2023/06/29 00:23:24;;;;;;;7.13;3.70;;;21.70;99.90;;;;;;5091345;28;20070;-55
2023/06/29 00:25:52;;;;;;;8.27;3.63;;;21.70;99.90;;;;;;5091416;28;20108;-57
2023/06/29 00:28:18;;;;;;;7.90;3.70;;;21.70;99.90;;;;;;5091817;28;20025;-54
2023/06/29 00:30:43;;;;;;;8.50;3.45;;;21.70;99.90;;;;;;5091361;28;20028;-57
2023/06/29 00:33:09;;;;;;;9.57;3.72;;;21.70;99.90;;;;;;5090979;28;20093;-54
2023/06/29 00:35:35;;;;;;;9.85;3.50;;;21.60;99.90;;;;;;5091430;28;20020;-54
2023/06/29 00:38:00;;;;;;;12.00;3.60;;;21.50;99.90;;;;;;5091189;28;20044;-56
2023/06/29 00:40:26;;;;;;;7.68;3.55;;;21.40;99.90;;;;;;5091343;28;20122;-57
2023/06/29 00:42:52;;;;;;;9.60;3.88;;;21.40;99.90;;;;;;5091500;28;20032;-56
2023/06/29 00:45:18;;;;;;;11.60;3.95;;;21.30;99.90;;;;;;5091208;28;20028;-56
2023/06/29 00:47:44;;;;;;;6.85;3.40;;;21.20;99.90;;;;;;5091005;28;20031;-57
2023/06/29 00:50:10;;;;;;;6.80;3.05;;;21.20;99.90;;;;;;5091169;28;20440;-55
2023/06/29 00:52:36;;;;;;;7.75;3.55;;;21.20;99.90;;;;;;5091225;28;20024;-57
2023/06/29 00:55:02;;;;;;;7.68;3.35;;;21.20;99.90;;;;;;5091495;28;20081;-57
2023/06/29 00:57:29;;;;;;;9.00;3.60;;;21.20;99.90;;;;;;5091144;28;20023;-57
2023/06/29 00:59:59;;;;;;;8.68;3.90;;;21.20;99.90;;;;;;5091084;28;20058;-55
2023/06/29 01:02:25;;;;;;;11.27;3.67;;;21.10;99.90;;;;;;5090861;28;20032;-56
2023/06/29 01:04:51;;;;;;;10.35;3.88;;;21.20;99.90;;;;;;5091071;28;20394;-56
2023/06/29 01:07:32;;;;;;;9.77;3.85;;;21.20;99.90;;;;;;5091084;28;20467;-57
2023/06/29 01:09:59;;;;;;;7.82;3.65;;;21.30;99.90;;;;;;5092265;28;20028;-55
2023/06/29 01:12:26;;;;;;;10.13;4.07;;;21.20;99.90;;;;;;5095524;28;20034;-55
2023/06/29 01:14:54;;;;;;;11.10;3.80;;;21.20;99.90;;;;;;5094534;28;20034;-56
2023/06/29 01:17:23;;;;;;;8.45;4.00;;;21.30;99.90;;;;;;5094807;28;20043;-57
2023/06/29 01:19:51;;;;;;;9.27;3.67;;;21.40;99.90;;;;;;5093711;28;20486;-56
2023/06/29 01:22:30;;;;;;;8.35;4.20;;;21.50;99.90;;;;;;5094745;28;20455;-57
2023/06/29 01:24:56;;;;;;;16.35;4.13;;;21.60;99.90;;;;;;5095067;28;20024;-56
2023/06/29 01:27:21;;;;;;;11.30;4.65;;;21.60;99.90;;;;;;5094886;28;20043;-55
2023/06/29 01:29:47;;;;;;;13.88;4.50;;;21.60;99.90;;;;;;5095131;28;20032;-56
2023/06/29 01:32:14;;;;;;;13.25;4.70;;;21.60;99.90;;;;;;5094328;28;20027;-57
2023/06/29 01:34:40;;;;;;;10.93;4.55;;;21.50;99.90;;;;;;5094567;28;20131;-55
2023/06/29 01:37:14;;;;;;;12.73;4.90;;;21.50;99.90;;;;;;5094766;28;20024;-53
2023/06/29 01:40:05;;;;;;;;;;;21.50;99.90;;;;;;5095000;28;20506;-57
2023/06/29 01:42:32;;;;;;;12.63;4.60;;;21.50;99.90;;;;;;5087262;28;19995;-57
2023/06/29 01:45:04;;;;;;;10.68;4.22;;;21.60;99.90;;;;;;5094941;28;20031;-56
2023/06/29 01:47:30;;;;;;;11.80;3.95;;;21.60;99.90;;;;;;5094126;28;20099;-57
2023/06/29 01:49:56;;;;;;;9.80;4.00;;;21.50;99.90;;;;;;5094495;28;20032;-56
2023/06/29 01:52:22;;;;;;;10.95;4.13;;;21.40;99.90;;;;;;5094051;28;20096;-57
2023/06/29 01:54:48;;;;;;;9.30;3.92;;;21.20;99.90;;;;;;5094695;28;20111;-56
2023/06/29 01:57:14;;;;;;;7.13;3.78;;;21.20;99.90;;;;;;5094258;28;20485;-56
2023/06/29 01:59:40;;;;;;;8.45;3.83;;;21.20;99.90;;;;;;5094165;28;20057;-57
2023/06/29 02:02:06;;;;;;;9.40;3.50;;;21.10;99.90;;;;;;5093869;28;20028;-55
2023/06/29 02:04:32;;;;;;;10.05;3.85;;;21.10;99.90;;;;;;5094372;28;20051;-56
2023/06/29 02:06:58;;;;;;;12.55;3.83;;;21.10;99.90;;;;;;5094203;28;20028;-51
2023/06/29 02:09:24;;;;;;;8.57;3.55;;;21.00;99.90;;;;;;5094106;28;20035;-57
2023/06/29 02:11:50;;;;;;;9.93;4.05;;;21.00;99.90;;;;;;5093915;28;20522;-56
2023/06/29 02:14:18;;;;;;;10.40;3.90;;;21.00;99.90;;;;;;5093560;28;20032;-56
2023/06/29 02:16:46;;;;;;;7.32;3.55;;;21.10;99.90;;;;;;5093695;28;20024;-57
2023/06/29 02:19:12;;;;;;;9.27;3.72;;;21.10;99.90;;;;;;5093755;28;20090;-57
2023/06/29 02:21:38;;;;;;;8.73;3.83;;;21.00;99.90;;;;;;5092994;28;20092;-54
2023/06/29 02:24:04;;;;;;;9.93;4.10;;;21.00;99.90;;;;;;5093578;28;20080;-57
2023/06/29 02:26:29;;;;;;;13.52;3.95;;;21.00;99.90;;;;;;5093655;28;20020;-58
2023/06/29 02:28:55;;;;;;;12.18;4.00;;;21.10;99.90;;;;;;5093711;28;20035;-56
2023/06/29 02:31:21;;;;;;;8.80;3.70;;;21.10;99.90;;;;;;5093596;28;20093;-55
2023/06/29 02:33:47;;;;;;;10.32;3.83;;;21.30;99.90;;;;;;5093611;28;20036;-57
2023/06/29 02:36:13;;;;;;;9.35;3.70;;;21.40;99.90;;;;;;5093508;28;20024;-57
2023/06/29 02:38:38;;;;;;;9.77;3.65;;;21.40;99.90;;;;;;5093751;28;20024;-57
2023/06/29 02:41:04;;;;;;;12.55;3.88;;;21.50;99.90;;;;;;5093388;28;20032;-56
2023/06/29 02:43:30;;;;;;;10.02;3.67;;;21.50;99.90;;;;;;5093091;28;20024;-53
2023/06/29 02:45:55;;;;;;;6.22;3.70;;;21.50;99.90;;;;;;5093283;28;20069;-55
2023/06/29 02:48:21;;;;;;;14.07;3.63;;;21.50;99.90;;;;;;5093199;28;20460;-57
2023/06/29 02:50:46;;;;;;;9.60;3.60;;;21.50;99.90;;;;;;5093603;28;20375;-57
2023/06/29 02:53:16;;;;;;;9.88;3.60;;;21.60;99.90;;;;;;5093027;28;20047;-55
2023/06/29 02:55:41;;;;;;;8.82;3.30;;;21.60;99.90;;;;;;5093012;28;20064;-56
2023/06/29 02:58:07;;;;;;;9.32;3.63;;;21.60;99.90;;;;;;5093046;28;20066;-57
2023/06/29 03:00:33;;;;;;;9.30;3.53;;;21.60;99.90;;;;;;5093093;28;20060;-54
2023/06/29 03:02:58;;;;;;;8.02;3.67;;;21.50;99.90;;;;;;5092989;28;20062;-54
2023/06/29 03:05:24;;;;;;;9.57;3.80;;;21.20;99.90;;;;;;5093023;28;20035;-57
2023/06/29 03:07:50;;;;;;;9.20;3.88;;;21.00;99.90;;;;;;5092690;28;20422;-57
2023/06/29 03:10:16;;;;;;;9.45;4.03;;;20.90;99.90;;;;;;5092796;28;20031;-57
2023/06/29 03:12:42;;;;;;;8.07;3.97;;;20.70;99.90;;;;;;5092784;28;20024;-55
2023/06/29 03:15:08;;;;;;;9.23;4.13;;;20.50;99.90;;;;;;5092815;28;20024;-53
2023/06/29 03:17:33;;;;;;;8.80;4.28;;;20.40;99.90;;;;;;5092226;28;20077;-56
2023/06/29 03:19:59;;;;;;;9.52;4.25;;;20.30;99.90;;;;;;5092817;28;20111;-57
2023/06/29 03:22:26;;;;;;;9.23;4.35;;;20.30;99.90;;;;;;5092340;28;20040;-57
2023/06/29 03:24:52;;;;;;;10.73;4.00;;;20.30;99.90;;;;;;5092598;28;20032;-56
2023/06/29 03:27:19;;;;;;;8.98;4.18;;;20.20;99.90;;;;;;5092144;28;20401;-56
2023/06/29 03:29:45;;;;;;;10.25;4.50;;;20.20;99.90;;;;;;5092479;28;20021;-57
2023/06/29 03:32:11;;;;;;;9.32;4.20;;;20.10;99.90;;;;;;5092210;28;20114;-57
2023/06/29 03:34:37;;;;;;;9.45;4.57;;;20.10;99.90;;;;;;5092581;28;20099;-57
2023/06/29 03:37:03;;;;;;;15.15;5.40;;;20.00;99.90;;;;;;5092355;28;20099;-57
2023/06/29 03:39:28;;;;;;;10.30;4.70;;;20.00;99.90;;;;;;5091984;28;20031;-56
2023/06/29 03:41:54;;;;;;;11.30;5.40;;;19.90;99.90;;;;;;5091883;28;20039;-57
2023/06/29 03:44:19;;;;;;;10.65;5.30;;;19.70;99.90;;;;;;5092107;28;20108;-57
2023/06/29 03:46:46;;;;;;;11.20;4.90;;;19.80;99.90;;;;;;5092536;28;20035;-50
2023/06/29 03:49:11;;;;;;;11.20;5.15;;;19.90;99.90;;;;;;5091966;28;20055;-57
2023/06/29 03:51:37;;;;;;;11.95;4.85;;;19.90;99.90;;;;;;5091812;28;20062;-54
2023/06/29 03:54:03;;;;;;;11.40;5.15;;;20.00;99.90;;;;;;5091904;28;20031;-57
2023/06/29 03:56:31;;;;;;;11.75;5.38;;;20.00;99.90;;;;;;5090980;28;20035;-57
2023/06/29 03:58:57;;;;;;;13.70;5.00;;;20.00;99.90;;;;;;5092024;28;20058;-55
2023/06/29 04:01:22;;;;;;;10.98;5.15;;;19.90;99.90;;;;;;5091912;28;20036;-50
2023/06/29 04:03:48;;;;;;;11.70;5.88;;;19.80;99.90;;;;;;5091759;28;20031;-57
2023/06/29 04:06:14;;;;;;;12.75;5.65;;;19.80;99.90;;;;;;5091919;28;20486;-57
2023/06/29 04:08:40;;;;;;;10.10;5.05;;;19.70;99.90;;;;;;5091604;28;20398;-54
2023/06/29 04:11:05;;;;;;;10.88;5.30;;;19.70;99.90;;;;;;5090439;28;20402;-57
2023/06/29 04:13:31;;;;;;;10.80;5.20;;;19.70;99.90;;;;;;5091655;28;20102;-56
2023/06/29 04:15:57;;;;;;;11.57;5.13;;;19.60;99.90;;;;;;5091727;28;20390;-56
2023/06/29 04:18:22;;;;;;;12.25;5.72;;;19.50;99.90;;;;;;5091281;28;20679;-57
2023/06/29 04:20:48;;;;;;;11.52;5.30;;;19.30;99.90;;;;;;5091519;28;20036;-56
2023/06/29 04:23:15;;;;;;;8.23;5.00;;;19.30;99.90;;;;;;5091191;28;20093;-57
2023/06/29 04:25:43;;;;;;;10.95;5.43;;;19.20;99.90;;;;;;5090282;28;20040;-55
2023/06/29 04:28:11;;;;;;;9.32;5.40;;;19.20;99.90;;;;;;5091431;28;20065;-52
2023/06/29 04:30:42;;;;;;;11.10;5.53;;;19.10;99.90;;;;;;5091332;28;20387;-55
2023/06/29 04:33:11;;;;;;;13.73;5.72;;;19.00;99.90;;;;;;5091444;28;20482;-57
2023/06/29 04:35:41;;;;;;;11.60;5.60;;;19.00;99.90;;;;;;5091462;28;20028;-57
2023/06/29 04:38:11;;;;;;;12.35;5.75;;;19.00;99.90;;;;;;5091077;28;20035;-56
2023/06/29 04:40:37;;;;;;;10.38;5.50;;;19.00;99.90;;;;;;5090809;28;20105;-56
2023/06/29 04:43:03;;;;;;;9.93;5.53;;;19.00;99.90;;;;;;5091121;28;20024;-56
2023/06/29 04:45:32;;;;;;;10.98;5.57;;;19.00;99.90;;;;;;5091113;28;20085;-56
2023/06/29 04:47:58;;;;;;;12.77;5.88;;;19.00;99.90;;;;;;5091280;28;20020;-57
2023/06/29 04:50:25;;;;;;;11.10;6.15;;;19.00;99.90;;;;;;5091252;28;20048;-57
2023/06/29 04:53:09;;;;;;;11.85;5.57;;;19.00;99.90;;;;;;5091159;28;20024;-57
2023/06/29 04:55:38;;;;;;;13.63;6.13;;;19.00;99.90;;;;;;5090801;28;20038;-53
2023/06/29 04:58:04;;;;;;;12.63;5.47;;;19.00;99.90;;;;;;5091244;28;20537;-55
2023/06/29 05:00:33;;;;;;;12.70;6.28;;;19.00;99.90;;;;;;5091452;28;20032;-56
2023/06/29 05:02:59;;;;;;;15.45;6.15;;;19.20;99.90;;;;;;5089909;28;20089;-56
2023/06/29 05:05:25;;;;;;;16.30;6.00;;;19.30;99.90;;;;;;5091146;28;20032;-56
2023/06/29 05:07:51;;;;;;;12.02;5.85;;;19.40;99.90;;;;;;5091316;28;20127;-57
2023/06/29 05:10:17;;;;;;;12.10;5.70;;;19.60;99.90;;;;;;5090839;28;20034;-56
2023/06/29 05:12:42;;;;;;;13.02;5.65;;;19.70;99.90;;;;;;5090984;28;20368;-56
2023/06/29 05:15:08;;;;;;;15.07;5.70;;;19.70;99.90;;;;;;5091114;28;20120;-56
2023/06/29 05:17:34;;;;;;;10.95;5.82;;;19.70;99.90;;;;;;5090813;28;20017;-52
2023/06/29 05:20:00;;;;;;;9.77;5.70;;;19.70;99.90;;;;;;5090918;28;20419;-55
2023/06/29 05:22:25;;;;;;;13.77;6.20;;;19.80;99.90;;;;;;5090975;28;20048;-57
2023/06/29 05:24:51;;;;;;;12.30;5.80;;;19.80;99.90;;;;;;5090659;28;20100;-56
2023/06/29 05:27:17;;;;;;;13.75;6.07;;;19.80;99.90;;;;;;5090750;28;20043;-57
2023/06/29 05:29:42;;;;;;;15.43;6.07;;;19.90;99.90;;;;;;5090791;28;20364;-57
2023/06/29 05:32:08;;;;;;;15.57;6.28;;;19.80;99.90;;;;;;5091147;28;20699;-56
2023/06/29 05:34:35;;;;;;;15.35;6.50;;;19.70;99.90;;;;;;5090840;28;20386;-53
2023/06/29 05:37:01;;;;;;;12.77;7.10;;;19.70;99.90;;;;;;5090726;28;20028;-55
2023/06/29 05:39:27;;;;;;;14.80;6.80;;;19.80;99.90;;;;;;5090465;28;20069;-55
2023/06/29 05:41:53;;;;;;;13.68;6.75;;;19.80;99.90;;;;;;5090828;28;20032;-55
2023/06/29 05:44:18;;;;;;;13.35;6.70;;;19.80;99.90;;;;;;5090777;28;20073;-56
2023/06/29 05:46:44;;;;;;;17.17;7.03;;;19.80;99.90;;;;;;5090888;28;20028;-56
2023/06/29 05:49:10;;;;;;;16.85;6.65;;;19.80;99.90;;;;;;5090372;28;20032;-57
2023/06/29 05:51:37;;;;;;;14.32;7.00;;;19.80;99.90;;;;;;5090522;28;20028;-55
2023/06/29 05:54:04;;;;;;;14.63;6.95;;;20.00;99.90;;;;;;5090009;28;20032;-57
2023/06/29 05:56:30;;;;;;;11.85;6.25;;;20.20;99.90;;;;;;5092569;28;20059;-54
2023/06/29 05:58:56;;;;;;;12.90;6.30;;;20.50;99.90;;;;;;5092922;28;20498;-51
2023/06/29 06:01:22;;;;;;;10.73;6.50;;;20.50;99.90;;;;;;5094754;28;20044;-57
2023/06/29 06:03:47;;;;;;;15.90;6.47;;;20.80;99.90;;;;;;5093856;28;20394;-55
2023/06/29 06:06:13;;;;;;;13.18;6.15;;;20.80;99.90;;;;;;5093634;28;20032;-58
2023/06/29 06:08:39;;;;;;;13.98;5.93;;;20.90;99.90;;;;;;5094131;28;20070;-56
2023/06/29 06:11:05;;;;;;;12.90;6.25;;;21.00;99.90;;;;;;5094113;28;20028;-56
2023/06/29 06:13:31;;;;;;;12.40;5.22;;;21.10;99.90;;;;;;5093863;28;20437;-57
2023/06/29 06:15:57;;;;;;;11.55;5.47;;;21.20;99.90;;;;;;5093670;28;20024;-55
2023/06/29 06:18:22;;;;;;;14.45;5.30;;;21.30;99.90;;;;;;5093549;28;20627;-57
2023/06/29 06:20:48;;;;;;;11.52;5.43;;;21.30;99.90;;;;;;5093412;28;20544;-56
2023/06/29 06:23:14;;;;;;;14.88;5.22;;;21.30;99.90;;;;;;5093411;28;20109;-56
2023/06/29 06:25:39;;;;;;;12.32;4.88;;;21.50;99.90;;;;;;5093844;28;20032;-56
2023/06/29 06:28:05;;;;;;;10.85;5.35;;;21.40;99.90;;;;;;5093599;28;20069;-56
2023/06/29 06:30:31;;;;;;;10.85;5.60;;;21.50;99.90;;;;;;5093701;28;20039;-56
2023/06/29 06:32:56;;;;;;;11.70;5.55;;;21.70;99.90;;;;;;5093926;28;20101;-48
2023/06/29 06:35:23;;;;;;;12.52;5.10;;;21.70;99.90;;;;;;5093170;28;20398;-55
2023/06/29 06:37:49;;;;;;;15.80;5.80;;;21.70;99.90;;;;;;5093534;28;20074;-53
2023/06/29 06:40:15;;;;;;;12.48;5.20;;;21.70;99.90;;;;;;5093400;28;20482;-57
2023/06/29 06:42:41;;;;;;;11.25;4.93;;;21.70;99.90;;;;;;5093631;28;20082;-57
2023/06/29 06:45:08;;;;;;;10.48;4.75;;;21.80;99.90;;;;;;5093447;28;20031;-50
2023/06/29 06:47:35;;;;;;;12.20;4.53;;;21.90;99.90;;;;;;5093269;28;20406;-56
2023/06/29 06:50:02;;;;;;;9.85;4.10;;;22.00;99.90;;;;;;5092956;28;20036;-57
2023/06/29 06:52:28;;;;;;;9.30;3.53;;;22.10;99.90;;;;;;5091865;28;20043;-57
2023/06/29 06:54:56;;;;;;;9.55;3.40;;;22.00;99.90;;;;;;5093020;28;20063;-57
2023/06/29 06:57:22;;;;;;;8.88;3.85;;;21.90;99.90;;;;;;5093525;28;20020;-56
2023/06/29 06:59:48;;;;;;;12.82;4.25;;;21.90;99.90;;;;;;5093045;28;20111;-52
2023/06/29 07:02:14;;;;;;;8.18;3.75;;;22.10;99.90;;;;;;5092893;28;20530;-56
2023/06/29 07:04:40;;;;;;;9.32;3.70;;;22.10;99.90;;;;;;5092567;28;20107;-57
2023/06/29 07:07:08;;;;;;;8.32;3.78;;;22.10;99.90;;;;;;5092583;28;20131;-56
2023/06/29 07:09:34;;;;;;;11.65;4.15;;;22.10;99.90;;;;;;5092742;28;20035;-57
2023/06/29 07:12:00;;;;;;;10.40;3.80;;;22.00;99.90;;;;;;5092881;28;20028;-55
2023/06/29 07:14:26;;;;;;;153.82;33.00;;;21.80;99.90;;;;;;5092829;28;20028;-49
2023/06/29 07:16:52;;;;;;;83.45;20.08;;;21.80;99.90;;;;;;5092712;28;20573;-55
2023/06/29 07:19:17;;;;;;;12.18;4.68;;;21.80;99.90;;;;;;5092256;28;20051;-57
2023/06/29 07:21:43;;;;;;;13.30;4.20;;;21.80;99.90;;;;;;5092679;28;20490;-57
2023/06/29 07:24:09;;;;;;;11.48;4.85;;;21.70;99.90;;;;;;5092444;28;20098;-56
2023/06/29 07:26:36;;;;;;;9.73;3.60;;;21.70;99.90;;;;;;5091828;28;20426;-57
2023/06/29 07:29:04;;;;;;;9.00;3.50;;;21.70;99.90;;;;;;5092565;28;20024;-55
2023/06/29 07:31:31;;;;;;;8.95;4.13;;;21.70;99.90;;;;;;5092240;28;20052;-57
2023/06/29 07:33:57;;;;;;;10.93;3.83;;;21.80;99.90;;;;;;5092010;28;20024;-52
2023/06/29 07:36:25;;;;;;;8.05;3.90;;;21.80;99.90;;;;;;5092772;28;20051;-57
2023/06/29 07:38:51;;;;;;;7.72;4.03;;;22.00;99.90;;;;;;5092373;28;20020;-53
2023/06/29 07:41:18;;;;;;;7.03;3.80;;;22.10;99.90;;;;;;5092058;28;20043;-57
2023/06/29 07:43:48;;;;;;;10.15;3.78;;;22.30;99.90;;;;;;5092336;28;20379;-56
2023/06/29 07:46:14;;;;;;;9.43;3.45;;;22.40;99.90;;;;;;5092184;28;20073;-57
2023/06/29 07:48:39;;;;;;;10.23;3.63;;;22.50;99.90;;;;;;5091816;28;20024;-57
2023/06/29 07:51:05;;;;;;;7.15;3.20;;;22.50;99.90;;;;;;5092109;28;20494;-57
2023/06/29 07:53:31;;;;;;;8.00;3.35;;;22.60;99.90;;;;;;5092051;28;20031;-51
2023/06/29 07:55:59;;;;;;;9.30;3.13;;;22.80;99.90;;;;;;5092333;28;20028;-57
2023/06/29 07:58:25;;;;;;;9.23;3.50;;;22.90;99.90;;;;;;5090827;28;20020;-51
2023/06/29 08:00:50;;;;;;;10.68;3.40;;;22.90;99.90;;;;;;5091800;28;20043;-55
2023/06/29 08:03:16;;;;;;;7.97;3.50;;;22.70;99.90;;;;;;5091835;28;20505;-57
2023/06/29 08:05:42;;;;;;;8.10;3.50;;;22.80;99.90;;;;;;5092104;28;20028;-57
2023/06/29 08:08:07;;;;;;;9.15;3.33;;;22.80;99.90;;;;;;5091808;28;20406;-57
2023/06/29 08:10:33;;;;;;;6.63;3.42;;;23.10;99.90;;;;;;5091757;28;20024;-57
2023/06/29 08:12:59;;;;;;;9.85;3.78;;;23.20;99.90;;;;;;5091827;28;20022;-57
2023/06/29 08:15:25;;;;;;;7.00;3.30;;;23.10;99.90;;;;;;5091966;28;20031;-57
2023/06/29 08:17:50;;;;;;;8.02;3.35;;;23.10;99.90;;;;;;5091150;28;20032;-57
2023/06/29 08:20:16;;;;;;;7.57;3.17;;;23.10;99.90;;;;;;5090671;28;20105;-57
2023/06/29 08:22:47;;;;;;;8.25;3.20;;;23.20;99.90;;;;;;5091408;28;20036;-57
2023/06/29 08:25:12;;;;;;;7.28;3.20;;;23.20;99.90;;;;;;5091583;28;20635;-58
2023/06/29 08:27:39;;;;;;;7.57;2.90;;;23.30;99.90;;;;;;5091174;28;20037;-57
2023/06/29 08:30:05;;;;;;;8.13;3.22;;;23.30;99.90;;;;;;5091715;28;20068;-57
2023/06/29 08:32:31;;;;;;;6.50;3.22;;;23.20;99.90;;;;;;5091169;28;20028;-57
2023/06/29 08:34:56;;;;;;;9.05;3.40;;;23.10;99.90;;;;;;5091370;28;20500;-56
2023/06/29 08:37:22;;;;;;;7.50;3.17;;;23.10;99.90;;;;;;5091437;28;20561;-56
2023/06/29 08:39:48;;;;;;;9.23;3.15;;;23.00;99.90;;;;;;5090865;28;20056;-57
2023/06/29 08:42:14;;;;;;;9.15;3.20;;;23.00;99.90;;;;;;5091307;28;20379;-54
2023/06/29 08:44:40;;;;;;;10.10;3.53;;;22.90;99.90;;;;;;5090162;28;20080;-55
2023/06/29 08:47:06;;;;;;;9.95;3.22;;;22.90;99.90;;;;;;5091236;28;20028;-56
2023/06/29 08:49:35;;;;;;;7.85;3.50;;;22.80;99.90;;;;;;5091293;28;20399;-55
2023/06/29 08:52:03;;;;;;;5.30;2.85;;;22.90;99.90;;;;;;5091084;28;20043;-55
2023/06/29 08:54:32;;;;;;;8.93;3.33;;;22.90;99.90;;;;;;5091230;28;20454;-56
2023/06/29 08:57:04;;;;;;;8.65;3.40;;;23.10;99.90;;;;;;5091268;28;20027;-56
2023/06/29 08:59:30;;;;;;;8.23;3.17;;;23.40;99.90;;;;;;5090931;28;20479;-56
2023/06/29 09:01:58;;;;;;;6.53;3.10;;;23.50;99.90;;;;;;5090815;28;20064;-56
2023/06/29 09:04:27;;;;;;;6.35;3.17;;;23.60;99.90;;;;;;5091250;28;20535;-55
2023/06/29 09:06:56;;;;;;;7.97;3.30;;;23.70;99.90;;;;;;5091284;28;20613;-56
2023/06/29 09:09:22;;;;;;;9.40;3.45;;;23.70;99.90;;;;;;5091113;28;20043;-56
2023/06/29 09:11:48;;;;;;;6.53;3.00;;;23.50;99.90;;;;;;5091339;28;20016;-55
2023/06/29 09:14:13;;;;;;;9.32;3.30;;;23.60;99.90;;;;;;5090866;28;20044;-57
2023/06/29 09:16:58;;;;;;;8.75;3.33;;;23.70;99.90;;;;;;5090632;28;20020;-56
2023/06/29 09:19:25;;;;;;;10.25;3.30;;;23.80;99.90;;;;;;5070773;28;20414;-57
2023/06/29 09:21:51;;;;;;;10.50;3.75;;;24.00;99.90;;;;;;5070858;28;20048;-54
2023/06/29 09:24:20;;;;;;;12.75;3.50;;;23.90;99.90;;;;;;5070641;28;20052;-55
2023/06/29 09:26:53;;;;;;;8.80;3.30;;;23.80;99.90;;;;;;5070700;28;20028;-51
2023/06/29 09:29:18;;;;;;;10.25;3.25;;;23.80;99.90;;;;;;5070972;28;20032;-55
2023/06/29 09:31:57;;;;;;;8.13;2.90;;;23.90;99.90;;;;;;5073090;28;20383;-57
2023/06/29 09:34:26;;;;;;;9.35;2.80;;;23.80;99.90;;;;;;5074760;28;20031;-57
2023/06/29 09:36:52;;;;;;;5.60;3.10;;;23.90;99.90;;;;;;5074713;28;20108;-51
2023/06/29 09:39:19;;;;;;;7.55;2.92;;;24.10;99.90;;;;;;5074382;28;20447;-57
2023/06/29 09:41:49;;;;;;;6.97;3.20;;;24.20;99.90;;;;;;5074118;28;20025;-55
2023/06/29 09:44:19;;;;;;;10.60;3.60;;;24.20;99.90;;;;;;5073927;28;20019;-50
2023/06/29 09:46:48;;;;;;;10.95;3.80;;;24.10;99.90;;;;;;5074171;28;20024;-56
2023/06/29 09:49:14;;;;;;;10.90;3.80;;;24.20;99.90;;;;;;5074223;28;20074;-56
2023/06/29 09:51:40;;;;;;;9.23;3.60;;;24.30;99.90;;;;;;5074172;28;20020;-56
2023/06/29 09:54:10;;;;;;;8.98;3.50;;;24.30;99.90;;;;;;5074337;28;20031;-56
2023/06/29 09:56:37;;;;;;;7.80;3.70;;;24.20;99.90;;;;;;5073912;28;20032;-56
2023/06/29 09:59:04;;;;;;;7.95;3.80;;;24.20;99.90;;;;;;5073606;28;20032;-56
2023/06/29 10:01:30;;;;;;;9.63;3.50;;;24.20;99.90;;;;;;5074237;28;20491;-52
2023/06/29 10:03:56;;;;;;;8.98;3.75;;;24.20;99.90;;;;;;5073793;28;20029;-56
2023/06/29 10:06:30;;;;;;;7.82;3.50;;;24.30;99.90;;;;;;5073596;28;20024;-52
2023/06/29 10:08:58;;;;;;;5.07;3.17;;;24.30;99.90;;;;;;5073787;28;20064;-55
2023/06/29 10:11:29;;;;;;;9.15;3.80;;;24.30;99.90;;;;;;5073465;28;20037;-56
2023/06/29 10:14:03;;;;;;;7.00;3.47;;;24.40;99.90;;;;;;5073283;28;20030;-57
2023/06/29 10:16:40;;;;;;;7.00;3.70;;;24.50;99.90;;;;;;5073539;28;20503;-56
2023/06/29 10:19:18;;;;;;;6.35;3.75;;;24.40;99.90;;;;;;5093424;28;20120;-55
2023/06/29 10:21:45;;;;;;;7.70;3.83;;;24.60;99.90;;;;;;5094110;28;20092;-53
2023/06/29 10:24:19;;;;;;;10.52;4.15;;;24.60;99.90;;;;;;5093378;28;20593;-55
2023/06/29 10:26:45;;;;;;;;;;;24.50;99.90;;;;;;5094022;28;20012;-57
2023/06/29 10:29:10;;;;;;;6.55;3.60;;;24.60;99.90;;;;;;5093571;28;20309;-53
2023/06/29 10:31:37;;;;;;;8.80;4.00;;;24.60;99.90;;;;;;5093501;28;20031;-53
2023/06/29 10:34:06;;;;;;;7.43;4.03;;;24.70;99.90;;;;;;5093451;28;20085;-55
2023/06/29 10:37:04;;;;;;;9.18;4.38;;;24.80;99.90;;;;;;5093383;28;20028;-54
2023/06/29 10:39:46;;;;;;;12.10;4.05;;;24.80;99.90;;;;;;5030692;28;20135;-57
2023/06/29 10:42:32;;;;;;;9.32;3.95;;;24.70;99.90;;;;;;5029460;28;20049;-57
2023/06/29 10:44:58;;;;;;;10.98;4.28;;;24.60;99.90;;;;;;5029512;28;20033;-58
2023/06/29 10:47:28;;;;;;;9.45;3.83;;;24.70;99.90;;;;;;5029535;28;20033;-57
2023/06/29 10:50:09;;;;;;;7.53;3.70;;;24.80;99.90;;;;;;5029963;28;20600;-58
2023/06/29 10:52:35;;;;;;;8.70;4.00;;;24.90;99.90;;;;;;5030668;28;20053;-57
2023/06/29 10:55:19;;;;;;;8.52;4.20;;;24.90;99.90;;;;;;5030649;28;20639;-57
2023/06/29 10:57:58;;;;;;;7.78;4.30;;;24.90;99.90;;;;;;5030356;28;20508;-56
2023/06/29 11:00:28;;;;;;;7.88;3.70;;;24.80;99.90;;;;;;5030708;28;20482;-57
2023/06/29 11:02:54;;;;;;;8.15;4.70;;;24.80;99.90;;;;;;5030795;28;20038;-58
2023/06/29 11:05:21;;;;;;;8.98;4.18;;;24.80;99.90;;;;;;5030396;28;20085;-57
2023/06/29 11:07:53;;;;;;;7.53;3.90;;;24.90;99.90;;;;;;5030474;28;20037;-57
2023/06/29 11:10:20;;;;;;;7.50;3.85;;;24.80;99.90;;;;;;5030480;28;20038;-57
2023/06/29 11:12:49;;;;;;;5.38;3.92;;;24.80;99.90;;;;;;5029953;28;20021;-57
2023/06/29 11:15:16;;;;;;;7.25;4.05;;;24.60;99.90;;;;;;5065490;28;20115;-58
2023/06/29 11:17:43;;;;;;;6.75;4.13;;;24.70;99.90;;;;;;5092890;28;20032;-56
2023/06/29 11:20:13;;;;;;;7.20;3.78;;;24.60;99.90;;;;;;5092275;28;20087;-57
2023/06/29 11:22:40;;;;;;;7.95;4.20;;;24.70;99.90;;;;;;5091983;28;20064;-57
2023/06/29 11:25:07;;;;;;;8.88;4.03;;;24.70;99.90;;;;;;5092576;28;20028;-57
2023/06/29 11:27:33;;;;;;;9.57;5.10;;;24.70;99.90;;;;;;5091406;28;20012;-57
2023/06/29 11:30:00;;;;;;;9.18;4.50;;;24.70;99.90;;;;;;5092708;28;20024;-57
2023/06/29 11:32:26;;;;;;;6.80;4.20;;;24.60;99.90;;;;;;5092405;28;20024;-57
2023/06/29 11:35:21;;;;;;;9.38;4.20;;;24.60;99.90;;;;;;5092330;28;20059;-55
2023/06/29 11:37:49;;;;;;;6.50;3.95;;;25.00;99.90;;;;;;5090896;28;20046;-56
2023/06/29 11:40:18;;;;;;;7.82;4.40;;;25.10;99.90;;;;;;5091988;28;20052;-57
2023/06/29 11:42:45;;;;;;;7.10;4.43;;;25.10;99.90;;;;;;5092095;28;20020;-57
2023/06/29 11:45:10;;;;;;;8.30;4.22;;;25.00;99.90;;;;;;5092217;28;20047;-57
2023/06/29 11:47:36;;;;;;;7.68;4.40;;;25.10;99.90;;;;;;5092171;28;20498;-56
2023/06/29 11:50:07;;;;;;;8.07;4.18;;;25.50;99.90;;;;;;5092097;28;20099;-57
2023/06/29 11:52:34;;;;;;;7.97;3.83;;;25.40;99.90;;;;;;5091924;28;20453;-57
2023/06/29 11:55:02;;;;;;;8.73;3.63;;;25.50;99.90;;;;;;5091504;28;20027;-57
2023/06/29 11:57:36;;;;;;;7.30;3.50;;;25.40;99.90;;;;;;5091967;28;20453;-58
2023/06/29 12:00:24;;;;;;;7.28;3.78;;;25.50;99.90;;;;;;5092259;28;20073;-57
2023/06/29 12:02:50;;;;;;;6.95;3.92;;;25.80;99.90;;;;;;5092208;28;20054;-57
2023/06/29 12:05:16;;;;;;;6.65;4.05;;;25.80;99.90;;;;;;5091835;28;20055;-57
2023/06/29 12:07:46;;;;;;;8.50;4.20;;;25.90;99.90;;;;;;5091700;28;20028;-57
2023/06/29 12:10:22;;;;;;;8.20;3.80;;;25.70;99.90;;;;;;5091416;28;20423;-57
2023/06/29 12:12:59;;;;;;;6.95;4.07;;;25.80;99.90;;;;;;5091887;28;20046;-57
2023/06/29 12:15:31;;;;;;;8.13;4.22;;;25.70;99.90;;;;;;5091650;28;20055;-57
2023/06/29 12:18:07;;;;;;;8.80;4.40;;;25.50;99.90;;;;;;5091755;28;20063;-57
2023/06/29 12:20:40;;;;;;;8.02;4.20;;;25.70;99.90;;;;;;5091779;28;20048;-57
2023/06/29 12:23:07;;;;;;;6.18;4.60;;;25.70;99.90;;;;;;5091494;28;20131;-57
2023/06/29 12:25:47;;;;;;;8.27;4.82;;;25.70;99.90;;;;;;5091356;28;20085;-57
2023/06/29 12:28:14;;;;;;;9.20;4.57;;;25.60;99.90;;;;;;5091528;28;20030;-56
2023/06/29 12:30:40;;;;;;;8.15;5.03;;;25.60;99.90;;;;;;5091459;28;20387;-57
2023/06/29 12:33:06;;;;;;;7.03;4.70;;;25.70;99.90;;;;;;5091609;28;20402;-57
2023/06/29 12:35:32;;;;;;;6.82;4.88;;;25.70;99.90;;;;;;5091240;28;20032;-57
2023/06/29 12:37:58;;;;;;;8.77;5.07;;;26.00;99.90;;;;;;5091506;28;20566;-57
2023/06/29 12:40:24;;;;;;;9.25;5.68;;;25.80;99.90;;;;;;5091306;28;20032;-57
2023/06/29 12:42:51;;;;;;;7.45;5.30;;;25.90;99.90;;;;;;5091597;28;20017;-58
2023/06/29 12:45:17;;;;;;;7.65;5.28;;;26.10;99.90;;;;;;5091337;28;20031;-57